Time;durP1;ratioP1;P1;durP2;ratioP2;P2;SDS_P1;SDS_P2;PMS_P1;PMS_P2;Temp;Humidity;BMP_temperature;BMP_pressure;BME280_temperature;BME280_humidity;BME280_pressure;Samples;Min_cycle;Max_cycle;Signal;HPM_P1;HPM_P2
2021/01/25 00:00:51;;;;;;;3.15;0.57;;;-1.80;99.90;;;;;;5031301;28;20113;-91
2021/01/25 00:03:17;;;;;;;1.83;1.10;;;-1.80;99.90;;;;;;5030718;28;20030;-90
2021/01/25 00:05:43;;;;;;;3.40;0.50;;;-1.80;99.90;;;;;;5032084;28;20025;-90
2021/01/25 00:08:08;;;;;;;0.90;0.63;;;-1.90;99.90;;;;;;5030370;28;20404;-90
2021/01/25 00:10:34;;;;;;;4.00;0.70;;;-1.90;99.90;;;;;;5029225;28;20026;-90
2021/01/25 00:13:00;;;;;;;4.78;1.00;;;-1.80;99.90;;;;;;5024251;28;20029;-90
2021/01/25 00:15:25;;;;;;;1.45;0.90;;;-1.90;99.90;;;;;;5022221;28;20028;-91
2021/01/25 00:17:51;;;;;;;4.60;0.90;;;-1.90;99.90;;;;;;5034817;28;20029;-90
2021/01/25 00:20:17;;;;;;;3.67;1.45;;;-1.90;99.90;;;;;;5029060;28;20109;-90
2021/01/25 00:22:43;;;;;;;2.28;0.73;;;-1.90;99.90;;;;;;5021529;28;20026;-89
2021/01/25 00:25:09;;;;;;;1.00;0.82;;;-2.00;99.90;;;;;;5022170;28;20083;-89
2021/01/25 00:27:35;;;;;;;1.27;0.50;;;-2.00;99.90;;;;;;5022013;28;20064;-90
2021/01/25 00:30:00;;;;;;;1.48;0.70;;;-2.00;99.90;;;;;;5023471;28;20429;-89
2021/01/25 00:32:26;;;;;;;1.33;0.50;;;-2.00;99.90;;;;;;5022429;28;20033;-90
2021/01/25 00:34:52;;;;;;;2.38;0.70;;;-2.00;99.90;;;;;;5022123;28;20075;-90
2021/01/25 00:37:17;;;;;;;1.23;0.80;;;-2.10;99.90;;;;;;5021065;28;20108;-90
2021/01/25 00:39:43;;;;;;;4.30;1.70;;;-2.10;99.90;;;;;;5021432;28;20026;-89
2021/01/25 00:42:09;;;;;;;5.50;2.17;;;-2.10;99.90;;;;;;5022418;28;20038;-89
2021/01/25 00:44:34;;;;;;;1.92;1.00;;;-2.20;99.90;;;;;;5023011;28;20052;-88
2021/01/25 00:47:00;;;;;;;3.63;1.65;;;-2.30;99.90;;;;;;5026413;28;20030;-88
2021/01/25 00:49:25;;;;;;;5.55;1.42;;;-2.30;99.90;;;;;;5022710;28;20025;-89
2021/01/25 00:51:51;;;;;;;4.65;1.42;;;-2.40;99.90;;;;;;5022242;28;20385;-89
2021/01/25 00:54:17;;;;;;;3.88;1.60;;;-2.40;99.90;;;;;;5024335;28;20029;-89
2021/01/25 00:56:42;;;;;;;6.43;1.30;;;-2.40;99.90;;;;;;5026512;28;20036;-89
2021/01/25 00:59:08;;;;;;;4.70;1.45;;;-2.50;99.90;;;;;;5021834;28;20037;-89
2021/01/25 01:01:33;;;;;;;3.97;1.77;;;-2.40;99.90;;;;;;5020703;28;20057;-89
2021/01/25 01:03:59;;;;;;;3.85;1.65;;;-2.50;99.90;;;;;;5023124;28;20052;-89
2021/01/25 01:06:25;;;;;;;1.92;1.02;;;-2.50;99.90;;;;;;5018098;28;20026;-89
2021/01/25 01:08:50;;;;;;;10.07;2.05;;;-2.50;99.90;;;;;;5021366;28;20586;-89
2021/01/25 01:11:16;;;;;;;8.18;1.80;;;-2.50;99.90;;;;;;5014626;28;20441;-89
2021/01/25 01:13:42;;;;;;;4.82;1.77;;;-2.50;99.90;;;;;;5011347;28;20029;-89
2021/01/25 01:16:08;;;;;;;6.85;2.50;;;-2.60;99.90;;;;;;5011882;28;20623;-88
2021/01/25 01:18:35;;;;;;;5.15;2.10;;;-2.50;99.90;;;;;;5010602;28;20037;-88
2021/01/25 01:21:02;;;;;;;5.05;2.00;;;-2.60;99.90;;;;;;5012631;28;20029;-88
2021/01/25 01:23:27;;;;;;;4.85;2.22;;;-2.70;99.90;;;;;;5012311;28;20034;-89
2021/01/25 01:25:53;;;;;;;9.32;3.00;;;-2.70;99.90;;;;;;5012366;28;20018;-89
2021/01/25 01:28:18;;;;;;;6.47;3.08;;;-2.80;99.90;;;;;;5012214;28;20037;-88
2021/01/25 01:30:44;;;;;;;8.80;3.20;;;-2.80;99.90;;;;;;5012009;28;20025;-88
2021/01/25 01:33:10;;;;;;;8.82;3.20;;;-2.80;99.90;;;;;;5014494;28;20049;-89
2021/01/25 01:35:35;;;;;;;6.97;2.50;;;-2.80;99.90;;;;;;5015930;28;20045;-88
2021/01/25 01:38:01;;;;;;;7.03;2.15;;;-2.80;99.90;;;;;;5015166;28;20022;-89
2021/01/25 01:40:26;;;;;;;6.15;2.35;;;-2.80;99.90;;;;;;5016164;28;20030;-89
2021/01/25 01:42:52;;;;;;;5.88;1.90;;;-2.80;99.90;;;;;;5016122;28;20026;-88
2021/01/25 01:45:18;;;;;;;8.25;1.95;;;-2.80;99.90;;;;;;5033710;28;20037;-88
2021/01/25 01:47:43;;;;;;;7.88;1.83;;;-2.70;99.90;;;;;;5035569;28;20041;-89
2021/01/25 01:50:12;;;;;;;6.80;2.13;;;-2.80;99.90;;;;;;5035755;28;20083;-89
2021/01/25 01:52:38;;;;;;;4.95;1.88;;;-2.80;99.90;;;;;;5035751;28;20053;-88
2021/01/25 01:55:04;;;;;;;4.90;1.40;;;-2.80;99.90;;;;;;5035179;28;20032;-88
2021/01/25 01:57:34;;;;;;;4.72;1.60;;;-2.70;99.90;;;;;;5035277;28;20034;-88
2021/01/25 02:00:02;;;;;;;8.75;2.08;;;-2.80;99.90;;;;;;5038047;28;20017;-88
2021/01/25 02:02:28;;;;;;;4.93;1.77;;;-2.90;99.90;;;;;;5058278;28;20494;-88
2021/01/25 02:04:54;;;;;;;4.25;2.53;;;-2.90;99.90;;;;;;5058303;28;20033;-90
2021/01/25 02:07:20;;;;;;;4.35;1.73;;;-3.00;99.90;;;;;;5058363;28;20032;-89
2021/01/25 02:09:47;;;;;;;2.38;1.63;;;-3.00;99.90;;;;;;5058614;28;20115;-89
2021/01/25 02:12:15;;;;;;;4.85;1.60;;;-3.00;99.90;;;;;;5058712;28;20060;-89
2021/01/25 02:14:41;;;;;;;3.45;1.25;;;-3.00;99.90;;;;;;5058333;28;20495;-88
2021/01/25 02:17:07;;;;;;;3.85;1.48;;;-3.00;99.90;;;;;;5058489;28;20032;-89
2021/01/25 02:19:44;;;;;;;6.20;1.50;;;-3.00;99.90;;;;;;5058155;28;20568;-89
2021/01/25 02:22:35;;;;;;;8.43;1.90;;;-3.00;99.90;;;;;;5046863;28;20036;-88
2021/01/25 02:25:23;;;;;;;3.15;1.35;;;-3.00;99.90;;;;;;5035473;28;20013;-90
2021/01/25 02:27:49;;;;;;;7.88;1.77;;;-3.00;99.90;;;;;;5034032;28;20041;-90
2021/01/25 02:30:16;;;;;;;4.43;1.25;;;-3.00;99.90;;;;;;5037401;28;20503;-91
2021/01/25 02:32:43;;;;;;;3.95;1.50;;;-3.00;99.90;;;;;;5037462;28;20432;-91
2021/01/25 02:35:12;;;;;;;8.05;3.33;;;-2.90;99.90;;;;;;5037724;28;20021;-90
2021/01/25 02:37:39;;;;;;;6.43;2.55;;;-2.90;99.90;;;;;;5035100;28;20021;-90
2021/01/25 02:40:09;;;;;;;12.52;5.60;;;-2.90;99.90;;;;;;5037386;28;20017;-89
2021/01/25 02:42:37;;;;;;;13.47;5.67;;;-2.90;99.90;;;;;;5037370;28;20476;-90
2021/01/25 02:45:04;;;;;;;8.98;3.10;;;-3.00;99.90;;;;;;5037216;28;20260;-90
2021/01/25 02:47:31;;;;;;;7.63;3.78;;;-3.00;99.90;;;;;;5036525;28;20037;-89
2021/01/25 02:49:57;;;;;;;7.88;2.80;;;-3.00;99.90;;;;;;5037101;28;20092;-89
2021/01/25 02:52:23;;;;;;;5.63;2.10;;;-3.00;99.90;;;;;;5022600;28;20125;-90
2021/01/25 02:54:49;;;;;;;8.75;2.58;;;-3.10;99.90;;;;;;5017612;28;20052;-91
2021/01/25 02:57:17;;;;;;;7.20;2.40;;;-3.10;99.90;;;;;;5017724;28;20040;-89
2021/01/25 02:59:43;;;;;;;6.15;2.45;;;-3.10;99.90;;;;;;5017546;28;20120;-89
2021/01/25 03:02:12;;;;;;;6.68;3.20;;;-3.10;99.90;;;;;;5014620;28;20402;-90
2021/01/25 03:04:39;;;;;;;6.35;3.42;;;-3.10;99.90;;;;;;5014334;28;20491;-89
2021/01/25 03:07:05;;;;;;;10.23;3.70;;;-3.10;99.90;;;;;;5013974;28;20037;-90
2021/01/25 03:09:32;;;;;;;7.55;3.70;;;-3.00;99.90;;;;;;5014101;28;20026;-90
2021/01/25 03:12:01;;;;;;;6.43;3.45;;;-2.90;99.90;;;;;;5014069;28;20041;-90
2021/01/25 03:14:26;;;;;;;6.47;3.63;;;-2.80;99.90;;;;;;5014188;28;20034;-89
2021/01/25 03:16:52;;;;;;;11.38;5.93;;;-2.70;99.90;;;;;;5014224;28;20435;-88
2021/01/25 03:19:18;;;;;;;12.68;6.10;;;-2.50;99.90;;;;;;5014544;28;20034;-89
2021/01/25 03:21:48;;;;;;;10.82;5.53;;;-2.30;99.90;;;;;;5013975;28;20040;-88
2021/01/25 03:24:13;;;;;;;9.82;4.80;;;-2.20;99.90;;;;;;5013867;28;20030;-90
2021/01/25 03:26:39;;;;;;;7.68;4.28;;;-2.10;99.90;;;;;;5013984;28;20115;-89
2021/01/25 03:29:05;;;;;;;7.13;4.00;;;-1.90;99.90;;;;;;5014497;28;20029;-92
2021/01/25 03:31:31;;;;;;;6.97;4.32;;;-1.80;99.90;;;;;;5014346;28;20089;-92
2021/01/25 03:33:57;;;;;;;10.32;4.47;;;-1.60;99.90;;;;;;5014045;28;20392;-91
2021/01/25 03:36:23;;;;;;;8.30;4.60;;;-1.50;99.90;;;;;;5014921;28;20034;-90
2021/01/25 03:38:48;;;;;;;11.50;5.32;;;-1.30;99.90;;;;;;5025536;28;20033;-91
2021/01/25 03:41:14;;;;;;;10.68;5.20;;;-1.20;99.90;;;;;;5026350;28;20029;-92
2021/01/25 03:43:40;;;;;;;9.82;5.15;;;-1.20;99.90;;;;;;5022392;28;20034;-92
2021/01/25 03:46:05;;;;;;;9.05;4.18;;;-1.10;99.90;;;;;;5020675;28;20117;-91
2021/01/25 03:48:31;;;;;;;6.22;3.97;;;-1.10;99.90;;;;;;5016136;28;20038;-93
2021/01/25 03:50:56;;;;;;;4.90;3.40;;;-1.00;99.90;;;;;;5013173;28;20026;-92
2021/01/25 03:53:22;;;;;;;3.65;2.50;;;-0.90;99.90;;;;;;5013186;28;20034;-92
2021/01/25 03:55:48;;;;;;;5.93;3.30;;;-0.80;99.90;;;;;;5013076;28;20056;-92
2021/01/25 03:58:14;;;;;;;4.82;2.75;;;-0.80;99.90;;;;;;5013991;28;20492;-93
2021/01/25 04:00:39;;;;;;;6.22;3.00;;;-0.70;99.90;;;;;;5013584;28;20053;-93
2021/01/25 04:03:05;;;;;;;5.60;3.40;;;-0.70;99.90;;;;;;5013363;28;20516;-91
2021/01/25 04:05:31;;;;;;;6.35;3.90;;;-0.60;99.90;;;;;;5013532;28;20022;-92
2021/01/25 04:07:56;;;;;;;11.02;3.75;;;-0.70;99.90;;;;;;5013479;28;20110;-92
2021/01/25 04:10:22;;;;;;;6.75;3.90;;;-0.60;99.90;;;;;;5013791;28;20018;-92
2021/01/25 04:12:48;;;;;;;6.03;3.10;;;-0.70;99.90;;;;;;5013361;28;20029;-92
2021/01/25 04:15:14;;;;;;;5.38;3.47;;;-0.70;99.90;;;;;;5013399;28;20026;-89
2021/01/25 04:17:39;;;;;;;7.40;3.70;;;-0.70;99.90;;;;;;5014408;28;20029;-92
2021/01/25 04:20:06;;;;;;;6.70;3.00;;;-0.80;99.90;;;;;;5013265;28;20028;-92
2021/01/25 04:22:32;;;;;;;6.80;3.00;;;-0.80;99.90;;;;;;5013426;28;20034;-93
2021/01/25 04:24:58;;;;;;;5.03;3.22;;;-0.80;99.90;;;;;;5013287;28;20511;-90
2021/01/25 04:27:23;;;;;;;6.93;3.30;;;-0.90;99.90;;;;;;5013337;28;20046;-92
2021/01/25 04:29:49;;;;;;;8.70;3.38;;;-0.90;99.90;;;;;;5013119;28;20465;-92
2021/01/25 04:32:15;;;;;;;7.30;4.30;;;-0.90;99.90;;;;;;5013381;28;20477;-92
2021/01/25 04:34:40;;;;;;;11.07;4.63;;;-0.90;99.90;;;;;;5013069;28;20026;-91
2021/01/25 04:37:06;;;;;;;8.80;5.03;;;-0.90;99.90;;;;;;5013222;28;20030;-91
2021/01/25 04:39:32;;;;;;;7.47;4.45;;;-0.80;99.90;;;;;;5013531;28;20037;-93
2021/01/25 04:41:57;;;;;;;6.50;4.30;;;-0.70;99.90;;;;;;5013148;28;20113;-91
2021/01/25 04:44:24;;;;;;;10.10;5.65;;;-0.70;99.90;;;;;;5013396;28;20229;-92
2021/01/25 04:46:51;;;;;;;8.80;4.78;;;-0.70;99.90;;;;;;5013208;28;20157;-93
2021/01/25 04:49:18;;;;;;;10.10;5.50;;;-0.70;99.90;;;;;;5012982;28;20034;-94
2021/01/25 04:51:44;;;;;;;9.00;4.13;;;-0.70;99.90;;;;;;5013210;28;20025;-91
2021/01/25 04:54:10;;;;;;;7.82;4.45;;;-0.70;99.90;;;;;;5013032;28;20065;-90
2021/01/25 04:56:36;;;;;;;12.73;6.03;;;-0.70;99.90;;;;;;5013195;28;20033;-92
2021/01/25 04:59:03;;;;;;;11.43;5.22;;;-0.60;99.90;;;;;;5013307;28;20486;-91
2021/01/25 05:01:29;;;;;;;12.80;5.35;;;-0.70;99.90;;;;;;5012882;28;20045;-90
2021/01/25 05:03:54;;;;;;;8.48;5.03;;;-0.60;99.90;;;;;;5012561;28;20112;-93
2021/01/25 05:06:20;;;;;;;10.48;4.95;;;-0.60;99.90;;;;;;5013581;28;20026;-92
2021/01/25 05:08:46;;;;;;;7.72;4.22;;;-0.60;99.90;;;;;;5016297;28;20045;-92
2021/01/25 05:11:13;;;;;;;11.80;4.93;;;-0.60;99.90;;;;;;5016373;28;20532;-93
2021/01/25 05:13:39;;;;;;;6.93;4.10;;;-0.60;99.90;;;;;;5016274;28;20033;-93
2021/01/25 05:16:21;;;;;;;10.95;5.00;;;-0.60;99.90;;;;;;5016005;28;20025;-93
2021/01/25 05:18:57;;;;;;;8.27;3.83;;;-0.60;99.90;;;;;;5015799;28;20035;-93
2021/01/25 05:21:37;;;;;;;9.40;5.57;;;-0.60;99.90;;;;;;5015750;28;20041;-92
2021/01/25 05:24:07;;;;;;;10.15;6.05;;;-0.70;99.90;;;;;;5015635;28;20093;-92
2021/01/25 05:26:34;;;;;;;9.82;4.85;;;-0.70;99.90;;;;;;5015854;28;20045;-93
2021/01/25 05:29:01;;;;;;;9.20;4.25;;;-0.70;99.90;;;;;;5016003;28;20033;-93
2021/01/25 05:31:27;;;;;;;11.45;5.15;;;-0.70;99.90;;;;;;5016439;28;20026;-92
2021/01/25 05:33:53;;;;;;;8.20;4.85;;;-0.70;99.90;;;;;;5016154;28;20034;-93
2021/01/25 05:36:29;;;;;;;12.38;5.43;;;-0.70;99.90;;;;;;5016968;28;20555;-93
2021/01/25 05:38:55;;;;;;;8.75;4.78;;;-0.70;99.90;;;;;;5016223;28;20046;-93
2021/01/25 05:41:21;;;;;;;8.98;4.20;;;-0.60;99.90;;;;;;5016313;28;20388;-93
2021/01/25 05:43:49;;;;;;;4.45;2.72;;;-0.70;99.90;;;;;;5016218;28;20555;-94
2021/01/25 05:46:17;;;;;;;7.10;3.88;;;-0.60;99.90;;;;;;5016148;28;20033;-94
2021/01/25 05:48:44;;;;;;;9.48;4.75;;;-0.60;99.90;;;;;;5015489;28;20041;-91
2021/01/25 05:51:17;;;;;;;11.43;5.80;;;-0.50;99.90;;;;;;5016283;28;20022;-92
2021/01/25 05:53:47;;;;;;;9.68;5.80;;;-0.50;99.90;;;;;;5015895;28;20124;-92
2021/01/25 05:56:14;;;;;;;13.30;6.50;;;-0.40;99.90;;;;;;5015376;28;20026;-89
2021/01/25 05:58:41;;;;;;;15.80;7.70;;;-0.40;99.90;;;;;;5015184;28;20081;-90
2021/01/25 06:01:07;;;;;;;15.75;7.82;;;-0.40;99.90;;;;;;5014808;28;20056;-91
2021/01/25 06:03:38;;;;;;;19.38;8.95;;;-0.40;99.90;;;;;;5014515;28;20033;-91
2021/01/25 06:06:09;;;;;;;19.15;9.38;;;-0.30;99.90;;;;;;5015127;28;20029;-91
2021/01/25 06:08:51;;;;;;;;;;;-0.30;99.90;;;;;;5015730;28;20038;-93
2021/01/25 06:11:21;;;;;;;19.35;9.30;;;-0.30;99.90;;;;;;5014982;28;19912;-93
2021/01/25 06:14:21;;;;;;;28.02;11.07;;;-0.20;99.90;;;;;;5014668;28;20056;-91
2021/01/25 06:16:50;;;;;;;21.83;11.45;;;-0.20;99.90;;;;;;5014602;28;20034;-92
2021/01/25 06:19:19;;;;;;;20.15;9.88;;;-0.10;99.90;;;;;;5014038;28;20062;-92
2021/01/25 06:21:47;;;;;;;22.05;10.48;;;-0.10;99.90;;;;;;5015174;28;20026;-91
2021/01/25 06:24:14;;;;;;;19.67;11.00;;;-0.10;99.90;;;;;;5014823;28;20026;-91
2021/01/25 06:26:40;;;;;;;21.75;11.82;;;-0.10;99.90;;;;;;5014603;28;20492;-93
2021/01/25 06:29:09;;;;;;;20.05;10.25;;;-0.10;99.90;;;;;;5014575;28;20026;-93
2021/01/25 06:31:41;;;;;;;27.88;12.30;;;0.00;99.90;;;;;;5014848;28;20057;-93
2021/01/25 06:34:10;;;;;;;23.60;12.02;;;0.00;99.90;;;;;;5014676;28;20037;-94
2021/01/25 06:36:36;;;;;;;24.23;11.48;;;0.00;99.90;;;;;;5016106;28;20117;-94
2021/01/25 06:39:05;;;;;;;26.40;11.27;;;0.00;99.90;;;;;;5015000;28;20034;-91
2021/01/25 06:41:38;;;;;;;27.40;13.05;;;0.00;99.90;;;;;;5015352;28;20029;-93
2021/01/25 06:44:04;;;;;;;26.27;14.15;;;0.00;99.90;;;;;;5024838;28;20120;-94
2021/01/25 06:46:36;;;;;;;27.10;13.70;;;0.00;99.90;;;;;;5022596;28;20026;-90
2021/01/25 06:49:05;;;;;;;30.02;15.23;;;0.00;99.90;;;;;;5025118;28;20027;-94
2021/01/25 06:51:31;;;;;;;30.83;14.52;;;-0.10;99.90;;;;;;5022105;28;20108;-92
2021/01/25 06:54:01;;;;;;;30.88;14.57;;;-0.10;99.90;;;;;;5021681;28;20519;-93
2021/01/25 06:56:41;;;;;;;29.73;13.95;;;-0.10;99.90;;;;;;5025220;28;20030;-94
2021/01/25 06:59:09;;;;;;;28.75;14.18;;;-0.10;99.90;;;;;;5030727;28;20030;-93
2021/01/25 07:01:35;;;;;;;28.08;14.35;;;-0.10;99.90;;;;;;5022608;28;20064;-92
2021/01/25 07:04:10;;;;;;;31.23;14.52;;;-0.10;99.90;;;;;;5030653;28;20022;-94
2021/01/25 07:06:37;;;;;;;23.73;13.10;;;-0.10;99.90;;;;;;5030682;28;20033;-92
2021/01/25 07:09:05;;;;;;;24.52;13.82;;;-0.20;99.90;;;;;;5032820;28;20022;-93
2021/01/25 07:11:32;;;;;;;28.02;13.98;;;-0.10;99.90;;;;;;5029795;28;20083;-93
2021/01/25 07:13:58;;;;;;;25.10;13.48;;;-0.10;99.90;;;;;;5033285;28;20030;-93
2021/01/25 07:16:25;;;;;;;25.17;14.13;;;-0.20;99.90;;;;;;5023829;28;20072;-93
2021/01/25 07:18:52;;;;;;;23.70;13.07;;;-0.10;99.90;;;;;;5022387;28;20056;-93
2021/01/25 07:21:18;;;;;;;18.42;12.13;;;-0.20;99.90;;;;;;5022750;28;20026;-93
2021/01/25 07:23:45;;;;;;;22.33;12.43;;;-0.20;99.90;;;;;;5025607;28;20456;-93
2021/01/25 07:26:13;;;;;;;23.63;10.38;;;-0.20;99.90;;;;;;5022808;28;20481;-94
2021/01/25 07:28:39;;;;;;;25.75;12.77;;;-0.20;99.90;;;;;;5022341;28;20033;-93
2021/01/25 07:31:06;;;;;;;21.10;11.70;;;-0.20;99.90;;;;;;5025201;28;20014;-92
2021/01/25 07:33:31;;;;;;;19.70;10.25;;;-0.20;99.90;;;;;;5021664;28;20021;-93
2021/01/25 07:35:58;;;;;;;20.13;11.82;;;-0.10;99.90;;;;;;5026775;28;20022;-93
2021/01/25 07:38:27;;;;;;;11.30;6.47;;;-0.10;99.90;;;;;;5023226;28;20032;-94
2021/01/25 07:40:57;;;;;;;20.83;11.18;;;0.00;99.90;;;;;;5022311;28;20053;-93
2021/01/25 07:43:26;;;;;;;20.17;11.40;;;0.10;99.90;;;;;;5024866;28;20033;-92
2021/01/25 07:45:52;;;;;;;19.30;11.20;;;0.10;99.90;;;;;;5022433;28;20083;-92
2021/01/25 07:48:18;;;;;;;14.90;9.63;;;0.20;99.90;;;;;;5034668;28;20053;-93
2021/01/25 07:50:55;;;;;;;16.85;10.02;;;0.20;99.90;;;;;;5027469;28;20033;-94
2021/01/25 07:53:21;;;;;;;18.85;8.75;;;0.30;99.90;;;;;;5017134;28;20794;-92
2021/01/25 07:55:47;;;;;;;19.73;9.20;;;0.40;99.90;;;;;;5010547;28;20144;-94
2021/01/25 07:58:13;;;;;;;18.40;8.88;;;0.50;99.90;;;;;;5029043;28;20033;-93
2021/01/25 08:00:42;;;;;;;16.98;8.43;;;0.60;99.90;;;;;;5028746;28;20456;-93
2021/01/25 08:03:28;;;;;;;12.10;8.40;;;0.70;99.90;;;;;;5027054;28;20063;-93
2021/01/25 08:05:58;;;;;;;14.73;8.52;;;0.70;99.90;;;;;;5038920;28;20032;-93
2021/01/25 08:08:27;;;;;;;17.02;7.40;;;0.80;99.90;;;;;;5024334;28;20125;-91
2021/01/25 08:10:54;;;;;;;14.40;6.68;;;0.90;99.90;;;;;;5028917;28;20056;-93
2021/01/25 08:13:25;;;;;;;13.25;6.13;;;0.90;99.90;;;;;;5026665;28;20025;-91
2021/01/25 08:16:03;;;;;;;11.93;6.93;;;1.00;99.90;;;;;;5034914;28;20017;-90
2021/01/25 08:18:43;;;;;;;13.93;6.35;;;1.00;99.90;;;;;;5027228;28;20025;-91
2021/01/25 08:21:16;;;;;;;10.50;6.07;;;1.10;99.90;;;;;;5023236;28;20021;-91
2021/01/25 08:23:47;;;;;;;14.32;6.88;;;1.20;99.90;;;;;;5024105;28;20083;-91
2021/01/25 08:26:12;;;;;;;19.48;7.60;;;1.20;99.90;;;;;;5024756;28;20064;-91
2021/01/25 08:28:44;;;;;;;9.38;5.65;;;1.30;99.90;;;;;;5027457;28;20527;-90
2021/01/25 08:31:28;;;;;;;16.00;7.18;;;1.30;99.90;;;;;;5030664;28;20029;-90
2021/01/25 08:34:05;;;;;;;13.27;6.72;;;1.30;99.90;;;;;;5025671;28;20028;-94
2021/01/25 08:36:36;;;;;;;15.82;6.47;;;1.30;99.90;;;;;;5027260;28;20037;-95
2021/01/25 08:39:17;;;;;;;11.35;5.10;;;1.30;99.90;;;;;;5028673;28;20029;-93
2021/01/25 08:41:49;;;;;;;11.43;6.13;;;1.30;99.90;;;;;;5025919;28;20014;-92
2021/01/25 08:44:23;;;;;;;15.82;6.43;;;1.30;99.90;;;;;;5032274;28;20041;-92
2021/01/25 08:46:50;;;;;;;14.57;7.13;;;1.30;99.90;;;;;;5031695;28;20032;-93
2021/01/25 08:49:20;;;;;;;12.73;6.55;;;1.30;99.90;;;;;;5031330;28;20431;-92
2021/01/25 08:52:04;;;;;;;21.35;7.22;;;1.30;99.90;;;;;;5027263;28;20088;-92
2021/01/25 08:54:33;;;;;;;16.88;7.60;;;1.30;99.90;;;;;;5036838;28;20039;-92
2021/01/25 08:56:59;;;;;;;17.92;7.03;;;1.30;99.90;;;;;;5030774;28;20029;-94
2021/01/25 08:59:30;;;;;;;19.20;7.72;;;1.30;99.90;;;;;;5027939;28;20033;-94
2021/01/25 09:01:55;;;;;;;15.55;7.72;;;1.30;99.90;;;;;;5033219;28;20068;-93
2021/01/25 09:04:21;;;;;;;20.25;7.57;;;1.40;99.90;;;;;;5029311;28;20507;-93
2021/01/25 09:06:52;;;;;;;19.80;6.55;;;1.40;99.90;;;;;;5029789;28;20112;-95
2021/01/25 09:09:19;;;;;;;17.45;7.43;;;1.40;99.90;;;;;;5029137;28;20097;-95
2021/01/25 09:11:45;;;;;;;22.30;8.40;;;1.50;99.90;;;;;;5028548;28;20025;-92
2021/01/25 09:14:16;;;;;;;12.07;7.03;;;1.50;99.90;;;;;;5028739;28;20021;-92
2021/01/25 09:16:43;;;;;;;15.10;6.97;;;1.50;99.90;;;;;;5030065;28;20113;-91
2021/01/25 09:19:09;;;;;;;18.02;7.25;;;1.50;99.90;;;;;;5026952;28;20489;-90
2021/01/25 09:21:35;;;;;;;21.13;6.57;;;1.50;99.90;;;;;;5029592;28;20029;-93
2021/01/25 09:24:00;;;;;;;14.95;6.45;;;1.60;99.90;;;;;;5030052;28;20025;-92
2021/01/25 09:26:26;;;;;;;15.55;6.10;;;1.60;99.90;;;;;;5031978;28;20021;-93
2021/01/25 09:28:52;;;;;;;18.92;6.57;;;1.60;99.90;;;;;;5027105;28;20116;-94
2021/01/25 09:31:22;;;;;;;14.63;5.25;;;1.60;99.90;;;;;;5030762;28;20018;-93
2021/01/25 09:33:47;;;;;;;6.93;2.65;;;1.70;99.90;;;;;;5033516;28;20476;-95
2021/01/25 09:36:13;;;;;;;11.93;5.80;;;1.70;99.90;;;;;;5028701;28;20080;-93
2021/01/25 09:38:39;;;;;;;18.35;5.45;;;1.80;99.90;;;;;;5026373;28;20029;-95
2021/01/25 09:41:05;;;;;;;18.58;5.05;;;1.90;99.90;;;;;;5034956;28;20117;-96
2021/01/25 09:43:31;;;;;;;14.93;5.68;;;1.90;99.90;;;;;;5027809;28;20071;-96
2021/01/25 09:45:56;;;;;;;15.07;5.72;;;2.00;99.90;;;;;;5030774;28;20032;-96
2021/01/25 09:48:22;;;;;;;19.88;6.05;;;2.10;99.90;;;;;;5027948;28;20044;-96
2021/01/25 09:50:48;;;;;;;11.43;5.70;;;2.10;99.90;;;;;;5030227;28;20403;-95
2021/01/25 09:53:15;;;;;;;19.75;7.00;;;2.30;99.90;;;;;;5028534;28;20029;-95
2021/01/25 09:55:41;;;;;;;19.65;8.10;;;2.30;99.90;;;;;;5032284;28;20044;-95
2021/01/25 09:58:10;;;;;;;20.48;5.25;;;2.30;99.90;;;;;;5030895;28;20025;-94
2021/01/25 10:00:35;;;;;;;13.85;6.05;;;2.40;99.90;;;;;;5045870;28;20025;-93
2021/01/25 10:03:01;;;;;;;14.63;5.25;;;2.60;99.90;;;;;;5026568;28;20036;-94
2021/01/25 10:05:27;;;;;;;14.13;5.18;;;2.80;99.90;;;;;;5006426;28;20021;-94
2021/01/25 10:07:52;;;;;;;12.48;6.20;;;2.90;99.90;;;;;;5038626;28;20618;-93
2021/01/25 10:10:18;;;;;;;12.40;4.85;;;3.00;99.90;;;;;;5030916;28;20032;-95
2021/01/25 10:12:44;;;;;;;10.77;4.57;;;3.10;99.90;;;;;;5031449;28;20029;-92
2021/01/25 10:15:13;;;;;;;15.02;4.30;;;3.20;99.90;;;;;;5054523;28;20116;-93
2021/01/25 10:17:39;;;;;;;10.52;4.10;;;3.20;99.90;;;;;;5035294;28;20026;-93
2021/01/25 10:20:06;;;;;;;11.15;3.42;;;3.20;99.90;;;;;;5024833;28;20439;-94
2021/01/25 10:22:31;;;;;;;8.63;3.13;;;3.20;99.90;;;;;;5029198;28;20029;-95
2021/01/25 10:24:57;;;;;;;16.75;3.58;;;3.30;99.90;;;;;;5034621;28;20469;-95
2021/01/25 10:27:24;;;;;;;17.02;3.17;;;3.30;99.90;;;;;;5043255;28;20024;-96
2021/01/25 10:29:49;;;;;;;10.85;3.20;;;3.60;99.90;;;;;;5034752;28;20024;-93
2021/01/25 10:32:15;;;;;;;11.27;4.03;;;3.80;99.90;;;;;;5040958;28;20013;-93
2021/01/25 10:38:08;;;;;;;7.53;2.55;;;4.50;99.90;;;;;;5299843;22;20139;-90
2021/01/25 10:40:34;;;;;;;5.57;1.95;;;4.90;99.90;;;;;;5043102;28;20021;-90
2021/01/25 10:43:05;;;;;;;13.23;2.97;;;5.10;99.90;;;;;;5051137;28;20029;-91
2021/01/25 10:45:31;;;;;;;12.68;2.95;;;5.30;99.90;;;;;;5043415;28;20489;-92
2021/01/25 10:47:57;;;;;;;9.02;2.35;;;5.60;99.90;;;;;;5043575;28;20036;-92
2021/01/25 10:50:23;;;;;;;5.57;2.10;;;5.70;99.90;;;;;;5045249;28;20025;-91
2021/01/25 10:52:49;;;;;;;12.13;2.58;;;5.90;99.90;;;;;;5053251;28;20028;-91
2021/01/25 10:55:15;;;;;;;9.40;2.72;;;6.20;99.90;;;;;;5043080;28;20025;-92
2021/01/25 10:57:41;;;;;;;6.35;1.75;;;6.30;99.90;;;;;;5052701;28;20016;-91
2021/01/25 11:00:10;;;;;;;7.90;2.47;;;6.50;99.90;;;;;;5043453;28;20825;-92
2021/01/25 11:02:36;;;;;;;7.95;2.13;;;6.70;99.90;;;;;;5042631;28;20025;-92
2021/01/25 11:05:03;;;;;;;12.80;4.75;;;6.90;99.90;;;;;;5047176;28;20027;-93
2021/01/25 11:07:30;;;;;;;10.90;2.42;;;6.80;99.90;;;;;;5043182;28;20025;-90
2021/01/25 11:09:55;;;;;;;17.92;2.75;;;6.90;99.90;;;;;;5043711;28;20029;-93
2021/01/25 11:12:21;;;;;;;11.88;2.58;;;6.90;99.90;;;;;;5052464;28;20040;-92
2021/01/25 11:14:47;;;;;;;5.35;1.92;;;6.90;99.90;;;;;;5043046;28;20103;-92
2021/01/25 11:17:13;;;;;;;9.05;2.22;;;6.80;99.90;;;;;;5042723;28;20021;-92
2021/01/25 11:19:39;;;;;;;7.63;2.33;;;6.70;99.90;;;;;;5042104;28;20025;-93
2021/01/25 11:22:05;;;;;;;12.10;2.90;;;6.50;99.90;;;;;;5042539;28;20106;-92
2021/01/25 11:24:33;;;;;;;5.70;2.30;;;6.50;99.90;;;;;;5042907;28;20088;-93
2021/01/25 11:27:03;;;;;;;9.13;2.20;;;6.60;99.90;;;;;;5042162;28;20028;-92
2021/01/25 11:29:30;;;;;;;13.52;3.22;;;6.70;99.90;;;;;;5042271;28;20032;-93
2021/01/25 11:32:00;;;;;;;9.10;1.80;;;6.90;99.90;;;;;;5042111;28;20062;-92
2021/01/25 11:34:28;;;;;;;5.28;1.40;;;7.20;99.90;;;;;;5042286;28;20017;-93
2021/01/25 11:36:55;;;;;;;10.18;2.40;;;7.40;99.90;;;;;;5043173;28;20029;-93
2021/01/25 11:39:22;;;;;;;7.80;1.55;;;7.70;99.20;;;;;;5052332;28;20109;-93
2021/01/25 11:41:48;;;;;;;4.28;1.35;;;7.90;97.80;;;;;;5052818;28;20029;-90
2021/01/25 11:44:14;;;;;;;6.05;1.33;;;7.90;97.10;;;;;;5051345;28;20035;-91
2021/01/25 11:46:40;;;;;;;11.02;2.17;;;7.90;96.80;;;;;;5048999;28;20032;-92
2021/01/25 11:49:06;;;;;;;5.93;1.55;;;7.90;97.10;;;;;;5050562;28;20111;-92
2021/01/25 11:51:32;;;;;;;4.97;1.30;;;8.20;97.10;;;;;;5048855;28;20059;-91
2021/01/25 11:53:58;;;;;;;8.23;2.15;;;8.20;95.90;;;;;;5050339;28;20082;-92
2021/01/25 11:56:24;;;;;;;6.25;1.73;;;8.30;95.30;;;;;;5050897;28;20012;-93
2021/01/25 11:58:50;;;;;;;8.32;1.90;;;8.50;95.30;;;;;;5053087;28;20069;-91
2021/01/25 12:01:16;;;;;;;5.90;1.45;;;8.80;93.90;;;;;;5049879;28;20029;-92
2021/01/25 12:03:42;;;;;;;10.45;1.70;;;9.00;93.50;;;;;;5053205;28;20028;-93
2021/01/25 12:06:07;;;;;;;7.50;1.65;;;9.10;92.60;;;;;;5051689;28;20064;-92
2021/01/25 12:08:37;;;;;;;7.35;1.77;;;9.20;91.40;;;;;;5049874;28;20029;-91
2021/01/25 12:11:04;;;;;;;12.77;1.98;;;9.00;91.20;;;;;;5048103;28;20344;-93
2021/01/25 12:13:30;;;;;;;8.48;1.48;;;8.80;91.10;;;;;;5053411;28;20032;-91
2021/01/25 12:15:55;;;;;;;8.18;1.60;;;8.60;91.30;;;;;;5051005;28;20100;-91
2021/01/25 12:18:21;;;;;;;11.10;2.47;;;8.30;91.50;;;;;;5050680;28;20356;-91
2021/01/25 12:20:47;;;;;;;13.95;3.42;;;8.30;92.20;;;;;;5052767;28;20487;-92
2021/01/25 12:23:13;;;;;;;11.05;2.10;;;8.20;92.80;;;;;;5059774;28;20043;-91
2021/01/25 12:25:39;;;;;;;9.45;2.50;;;8.30;92.50;;;;;;5053579;28;20016;-92
2021/01/25 12:28:07;;;;;;;10.40;2.25;;;8.30;92.20;;;;;;5050841;28;20029;-92
2021/01/25 12:30:33;;;;;;;8.48;2.42;;;8.30;92.50;;;;;;5051652;28;20016;-91
2021/01/25 12:32:59;;;;;;;11.32;2.35;;;8.40;92.70;;;;;;5047138;28;20032;-92
2021/01/25 12:35:29;;;;;;;7.25;2.55;;;8.40;92.80;;;;;;5047090;28;20028;-92
2021/01/25 12:37:56;;;;;;;14.50;2.60;;;8.50;92.80;;;;;;5051068;28;20059;-92
2021/01/25 12:40:23;;;;;;;11.00;2.60;;;8.50;92.80;;;;;;5050241;28;20052;-90
2021/01/25 12:42:52;;;;;;;12.23;3.10;;;8.50;92.50;;;;;;5049804;28;20029;-92
2021/01/25 12:45:25;;;;;;;9.82;3.00;;;8.20;92.60;;;;;;5050322;28;20028;-92
2021/01/25 12:47:54;;;;;;;9.10;2.63;;;8.20;92.90;;;;;;5055177;28;20029;-93
2021/01/25 12:50:24;;;;;;;6.55;2.40;;;8.20;93.30;;;;;;5047089;28;20115;-93